Time;durP1;ratioP1;P1;durP2;ratioP2;P2;SDS_P1;SDS_P2;PMS_P1;PMS_P2;Temp;Humidity;BMP_temperature;BMP_pressure;BME280_temperature;BME280_humidity;BME280_pressure;Samples;Min_cycle;Max_cycle;Signal;HPM_P1;HPM_P2
2022/08/02 00:00:57;;;;;;;7.57;4.20;;;;;;;9.16;100.00;101852.97;2105468;28;20050;-67
2022/08/02 00:01:59;;;;;;;9.27;3.60;;;;;;;9.15;100.00;101852.97;2105261;28;22990;-67
2022/08/02 00:03:03;;;;;;;10.00;3.80;;;;;;;9.11;100.00;101852.09;2105209;28;23431;-67
2022/08/02 00:04:06;;;;;;;7.82;4.13;;;;;;;9.07;100.00;101853.00;2105990;28;20029;-67
2022/08/02 00:05:09;;;;;;;7.40;4.15;;;;;;;9.03;100.00;101861.91;2104446;28;31494;-68
2022/08/02 00:06:11;;;;;;;8.35;3.78;;;;;;;9.00;100.00;101859.25;2105036;28;37877;-67
2022/08/02 00:07:14;;;;;;;7.57;3.88;;;;;;;8.97;100.00;101853.88;2104705;28;34881;-67
2022/08/02 00:08:16;;;;;;;5.18;3.80;;;;;;;8.94;100.00;101856.59;2104588;28;26991;-67
2022/08/02 00:09:18;;;;;;;8.30;4.25;;;;;;;8.93;100.00;101854.78;2104531;28;20909;-67
2022/08/02 00:10:22;;;;;;;7.30;4.30;;;;;;;8.92;100.00;101861.06;2105377;28;29064;-67
2022/08/02 00:11:24;;;;;;;10.95;5.45;;;;;;;8.92;100.00;101855.72;2104396;28;22540;-67
2022/08/02 00:12:26;;;;;;;11.63;5.43;;;;;;;8.91;100.00;101860.13;2104626;28;25088;-68
2022/08/02 00:13:28;;;;;;;10.80;4.85;;;;;;;8.89;100.00;101861.91;2104920;28;31456;-67
2022/08/02 00:14:30;;;;;;;9.77;3.95;;;;;;;8.90;100.00;101863.72;2105196;28;23742;-67
2022/08/02 00:15:32;;;;;;;10.40;3.53;;;;;;;8.87;100.00;101860.16;2104839;28;30307;-67
2022/08/02 00:16:34;;;;;;;5.50;3.97;;;;;;;8.86;100.00;101858.38;2105300;28;26163;-68
2022/08/02 00:17:39;;;;;;;8.48;3.92;;;;;;;8.83;100.00;101861.94;2105296;28;27928;-67
2022/08/02 00:18:40;;;;;;;9.68;3.83;;;;;;;8.79;100.00;101861.06;2105593;28;32392;-67
2022/08/02 00:19:45;;;;;;;10.20;4.57;;;;;;;8.77;100.00;101867.28;2104946;28;24513;-67
2022/08/02 00:20:46;;;;;;;10.63;4.28;;;;;;;8.75;100.00;101859.25;2104386;28;27301;-67
2022/08/02 00:21:48;;;;;;;13.43;5.07;;;;;;;8.73;100.00;101863.72;2103369;28;32628;-67
2022/08/02 00:22:55;;;;;;;8.95;4.35;;;;;;;8.71;100.00;101865.50;2105224;28;29409;-67
2022/08/02 00:23:56;;;;;;;4.53;3.65;;;;;;;8.69;100.00;101856.59;2104774;28;27467;-67
2022/08/02 00:25:09;;;;;;;6.95;3.65;;;;;;;8.64;100.00;101862.84;2105353;28;28162;-67
2022/08/02 00:26:11;;;;;;;9.23;4.15;;;;;;;8.62;100.00;101859.28;2104215;28;27471;-68
2022/08/02 00:27:13;;;;;;;8.90;4.72;;;;;;;8.62;100.00;101852.16;2096152;28;29024;-67
2022/08/02 00:28:15;;;;;;;11.77;5.05;;;;;;;8.64;100.00;101853.03;2104555;28;20040;-67
2022/08/02 00:29:20;;;;;;;8.77;5.60;;;;;;;8.72;100.00;101855.69;2104481;28;20983;-67
2022/08/02 00:30:22;;;;;;;10.50;5.60;;;;;;;8.77;100.00;101849.50;2104546;28;20087;-67
2022/08/02 00:31:23;;;;;;;13.18;5.95;;;;;;;8.77;100.00;101849.50;2105314;28;20036;-67
2022/08/02 00:32:25;;;;;;;12.70;5.32;;;;;;;8.78;100.00;101848.59;2105044;28;24486;-67
2022/08/02 00:33:27;;;;;;;7.70;4.68;;;;;;;8.81;100.00;101852.13;2104820;28;31629;-67
2022/08/02 00:34:50;;;;;;;11.30;5.13;;;;;;;8.78;100.00;101847.69;2105135;28;20119;-67
2022/08/02 00:35:54;;;;;;;12.50;4.93;;;;;;;8.74;100.00;101846.81;2104104;28;28013;-68
2022/08/02 00:36:56;;;;;;;9.45;5.43;;;;;;;8.75;100.00;101848.56;2104342;28;25916;-66
2022/08/02 00:37:57;;;;;;;10.70;5.05;;;;;;;8.75;100.00;101848.56;2104783;28;36269;-67
2022/08/02 00:38:59;;;;;;;9.10;5.25;;;;;;;8.76;100.00;101847.69;2105062;28;28600;-67
2022/08/02 00:40:02;;;;;;;9.30;4.95;;;;;;;8.77;100.00;101851.25;2104940;28;27007;-67
2022/08/02 00:41:12;;;;;;;10.30;5.38;;;;;;;8.75;100.00;101851.25;2105079;28;27336;-67
2022/08/02 00:42:14;;;;;;;8.65;5.10;;;;;;;8.73;100.00;101846.81;2104143;28;20082;-67
2022/08/02 00:43:17;;;;;;;9.63;5.10;;;;;;;8.69;100.00;101845.94;2104530;28;22872;-66
2022/08/02 00:44:20;;;;;;;10.05;4.65;;;;;;;8.63;100.00;101835.22;2104629;28;26535;-67
2022/08/02 00:45:21;;;;;;;7.22;4.80;;;;;;;8.70;100.00;101845.00;2105155;28;29658;-67
2022/08/02 00:46:26;;;;;;;11.27;5.72;;;;;;;8.73;100.00;101842.34;2104630;28;24822;-67
2022/08/02 00:47:27;;;;;;;8.50;6.13;;;;;;;8.74;100.00;101844.16;2105213;28;20039;-67
2022/08/02 00:48:29;;;;;;;15.65;7.15;;;;;;;8.79;100.00;101839.69;2104896;28;32775;-67
2022/08/02 00:49:31;;;;;;;13.32;6.50;;;;;;;8.77;100.00;101846.81;2104958;28;24669;-67
2022/08/02 00:50:37;;;;;;;11.60;5.28;;;;;;;8.75;100.00;101848.56;2104626;28;30037;-67
2022/08/02 00:51:40;;;;;;;10.43;5.03;;;;;;;8.73;100.00;101836.13;2104168;28;30692;-67
2022/08/02 00:52:42;;;;;;;8.70;4.90;;;;;;;8.67;100.00;101844.13;2103874;28;31326;-66
2022/08/02 00:53:44;;;;;;;9.93;6.03;;;;;;;8.65;100.00;101843.25;2104720;28;29135;-67
2022/08/02 00:54:45;;;;;;;11.23;6.45;;;;;;;8.66;100.00;101843.25;2104647;28;30098;-67
2022/08/02 00:55:47;;;;;;;15.63;6.68;;;;;;;8.64;100.00;101849.50;2104956;28;32323;-67
2022/08/02 00:56:49;;;;;;;10.35;6.00;;;;;;;8.62;100.00;101837.94;2104841;28;23176;-67
2022/08/02 00:57:52;;;;;;;10.77;5.60;;;;;;;8.59;100.00;101858.38;2105019;28;26446;-67
2022/08/02 00:58:54;;;;;;;10.65;6.18;;;;;;;8.61;100.00;101847.69;2104236;28;26896;-67
2022/08/02 00:59:56;;;;;;;10.43;5.72;;;;;;;8.61;100.00;101845.03;2104281;28;28925;-68
2022/08/02 01:00:59;;;;;;;11.63;6.38;;;;;;;8.58;100.00;101847.72;2104012;28;36158;-67
2022/08/02 01:02:01;;;;;;;12.65;5.93;;;;;;;8.54;100.00;101844.16;2105207;28;20045;-67
2022/08/02 01:03:03;;;;;;;11.38;5.47;;;;;;;8.51;100.00;101848.59;2104885;28;20058;-67
2022/08/02 01:04:11;;;;;;;13.02;5.85;;;;;;;8.46;100.00;101858.38;2105742;28;20809;-67
2022/08/02 01:05:13;;;;;;;9.80;5.60;;;;;;;8.46;100.00;101861.06;2105012;28;20056;-67
2022/08/02 01:06:18;;;;;;;10.55;6.80;;;;;;;8.44;100.00;101862.84;2104969;28;33757;-67
2022/08/02 01:07:19;;;;;;;12.18;7.20;;;;;;;8.44;100.00;101862.84;2104502;28;32677;-67
2022/08/02 01:08:21;;;;;;;8.95;6.00;;;;;;;8.43;100.00;101853.03;2104841;28;24682;-67
2022/08/02 01:09:23;;;;;;;16.42;6.82;;;;;;;8.43;100.00;101859.25;2104336;28;34488;-67
2022/08/02 01:10:25;;;;;;;15.15;6.72;;;;;;;8.42;100.00;101849.50;2105055;28;27591;-66
2022/08/02 01:11:29;;;;;;;8.52;6.32;;;;;;;8.43;100.00;101853.03;2105253;28;26763;-66
2022/08/02 01:12:33;;;;;;;11.80;6.63;;;;;;;8.41;100.00;101853.88;2104348;28;23173;-66
2022/08/02 01:13:35;;;;;;;9.00;6.45;;;;;;;8.44;100.00;101854.84;2103809;28;29707;-67
2022/08/02 01:14:39;;;;;;;11.55;6.80;;;;;;;8.45;100.00;101846.78;2104838;28;27453;-67
2022/08/02 01:15:50;;;;;;;9.38;6.20;;;;;;;8.46;100.00;101847.72;2104715;28;28959;-66
2022/08/02 01:17:07;;;;;;;12.93;6.35;;;;;;;8.52;100.00;101855.72;2104206;28;31134;-67
2022/08/02 01:18:21;;;;;;;12.07;6.20;;;;;;;8.50;100.00;101844.16;2104361;28;20908;-67
2022/08/02 01:20:12;;;;;;;11.13;6.38;;;;;;;8.46;100.00;101853.94;2103998;28;23320;-67
2022/08/02 01:22:06;;;;;;;9.00;6.32;;;;;;;8.39;100.00;101852.09;2104873;28;32178;-67
2022/08/02 01:23:29;;;;;;;8.68;5.68;;;;;;;8.35;100.00;101858.34;2104347;28;32687;-66
2022/08/02 01:25:26;;;;;;;7.93;5.00;;;;;;;8.35;100.00;101855.69;2104883;28;25560;-66
2022/08/02 01:26:39;;;;;;;12.43;6.20;;;;;;;8.37;100.00;101854.78;2104286;28;34970;-66
2022/08/02 01:28:18;;;;;;;8.98;5.57;;;;;;;8.41;100.00;101850.31;2104895;28;31947;-66
2022/08/02 01:29:48;;;;;;;11.95;5.72;;;;;;;8.48;100.00;101848.59;2104592;28;34458;-66
2022/08/02 01:30:59;;;;;;;;;;;;;;;8.52;100.00;101845.03;2106017;28;24894;-66
2022/08/02 01:32:24;;;;;;;13.63;6.95;;;;;;;8.62;100.00;101840.59;2104423;28;34973;-67
2022/08/02 01:33:35;;;;;;;10.55;7.00;;;;;;;8.66;100.00;101842.38;2104460;28;31685;-66
2022/08/02 01:35:01;;;;;;;12.65;7.03;;;;;;;8.76;100.00;101833.47;2104145;28;20032;-66
2022/08/02 01:36:08;;;;;;;14.00;7.57;;;;;;;8.79;100.00;101839.69;2104486;28;30779;-67
2022/08/02 01:37:50;;;;;;;12.13;7.35;;;;;;;8.79;100.00;101837.03;2105292;28;20040;-66
2022/08/02 01:38:55;;;;;;;10.73;7.47;;;;;;;8.83;100.00;101834.31;2104184;28;33537;-66
2022/08/02 01:40:07;;;;;;;16.17;8.32;;;;;;;8.81;100.00;101838.78;2104258;28;26134;-67
2022/08/02 01:41:17;;;;;;;13.38;8.55;;;;;;;8.80;100.00;101837.91;2103819;28;28779;-66
2022/08/02 01:42:20;;;;;;;14.57;8.57;;;;;;;8.84;100.00;101839.66;2104437;28;20160;-67
2022/08/02 01:43:25;;;;;;;13.02;8.30;;;;;;;8.85;100.00;101837.91;2103246;28;38853;-66
2022/08/02 01:44:34;;;;;;;14.93;8.00;;;;;;;8.85;100.00;101837.91;2103351;28;31742;-66
2022/08/02 01:45:41;;;;;;;12.40;7.18;;;;;;;8.77;100.00;101845.91;2104426;28;20118;-66
2022/08/02 01:46:43;;;;;;;9.52;7.40;;;;;;;8.73;100.00;101845.03;2104313;28;31971;-66
2022/08/02 01:47:49;;;;;;;11.25;6.78;;;;;;;8.71;100.00;101845.94;2103981;28;29875;-66
2022/08/02 01:48:53;;;;;;;16.48;8.15;;;;;;;8.68;100.00;101851.25;2104191;28;23059;-66
2022/08/02 01:50:00;;;;;;;9.52;7.25;;;;;;;8.67;100.00;101847.72;2103941;28;28473;-66
2022/08/02 01:51:03;;;;;;;10.13;5.45;;;;;;;8.64;100.00;101845.03;2104009;28;30293;-66
2022/08/02 01:52:20;;;;;;;9.40;5.85;;;;;;;8.63;100.00;101853.91;2103824;28;36249;-65
2022/08/02 01:53:28;;;;;;;11.77;7.05;;;;;;;8.59;100.00;101853.03;2104098;28;26549;-66
2022/08/02 01:54:32;;;;;;;13.00;7.18;;;;;;;8.58;100.00;101853.06;2104451;28;25988;-66
2022/08/02 01:55:52;;;;;;;7.88;6.00;;;;;;;8.56;100.00;101854.81;2103697;28;25908;-66
2022/08/02 01:57:04;;;;;;;10.20;5.25;;;;;;;8.54;100.00;101853.91;2104439;28;20048;-66
2022/08/02 01:58:13;;;;;;;6.28;5.18;;;;;;;8.49;100.00;101851.28;2104296;28;27055;-66
2022/08/02 01:59:19;;;;;;;11.80;5.85;;;;;;;8.46;100.00;101843.25;2103889;28;29156;-66
2022/08/02 02:00:25;;;;;;;8.68;4.65;;;;;;;8.45;100.00;101848.59;2104234;28;24632;-66
2022/08/02 02:01:27;;;;;;;10.75;6.78;;;;;;;8.49;100.00;101837.00;2103818;28;21333;-66
2022/08/02 02:02:31;;;;;;;13.48;7.03;;;;;;;8.47;100.00;101841.47;2103982;28;22595;-66
2022/08/02 02:03:35;;;;;;;8.93;6.07;;;;;;;8.47;100.00;101837.03;2102659;28;37333;-66
2022/08/02 02:04:45;;;;;;;11.27;5.80;;;;;;;8.47;100.00;101836.13;2104387;28;29219;-66
2022/08/02 02:05:55;;;;;;;11.85;7.00;;;;;;;8.45;100.00;101832.56;2103534;28;24925;-66
2022/08/02 02:06:58;;;;;;;5.30;4.75;;;;;;;8.45;100.00;101838.78;2105524;28;31827;-66
2022/08/02 02:08:05;;;;;;;9.25;6.65;;;;;;;8.43;100.00;101834.34;2105015;28;29485;-66
2022/08/02 02:09:09;;;;;;;9.52;5.72;;;;;;;8.42;100.00;101833.47;2105678;28;20083;-66
2022/08/02 02:10:18;;;;;;;10.60;7.18;;;;;;;8.44;100.00;101830.81;2104983;28;27728;-66
2022/08/02 02:11:23;;;;;;;9.18;6.25;;;;;;;8.43;100.00;101831.69;2106052;28;20048;-67
2022/08/02 02:12:50;;;;;;;10.02;6.40;;;;;;;8.41;100.00;101827.19;2106037;28;20794;-66
2022/08/02 02:13:59;;;;;;;11.40;6.82;;;;;;;8.38;100.00;101827.22;2106035;28;20125;-66
2022/08/02 02:15:02;;;;;;;9.10;6.47;;;;;;;8.39;100.00;101833.44;2105148;28;37955;-66
2022/08/02 02:16:05;;;;;;;10.18;7.28;;;;;;;8.40;100.00;101840.56;2097769;28;29136;-66
2022/08/02 02:17:08;;;;;;;13.35;5.75;;;;;;;8.41;100.00;101835.19;2105207;28;29704;-66
2022/08/02 02:18:16;;;;;;;17.00;8.15;;;;;;;8.43;100.00;101834.34;2104856;28;35908;-66
2022/08/02 02:19:20;;;;;;;11.75;6.13;;;;;;;8.44;100.00;101837.03;2105668;28;20074;-66
2022/08/02 02:20:26;;;;;;;12.38;6.93;;;;;;;8.44;100.00;101844.16;2106160;28;20041;-66
2022/08/02 02:21:29;;;;;;;13.13;6.03;;;;;;;8.40;100.00;101833.44;2105885;28;29892;-66
2022/08/02 02:22:34;;;;;;;9.90;6.50;;;;;;;8.45;100.00;101829.91;2104984;28;23413;-66
2022/08/02 02:23:36;;;;;;;12.90;7.00;;;;;;;8.43;100.00;101837.91;2105458;28;25063;-66
2022/08/02 02:24:38;;;;;;;13.45;7.05;;;;;;;8.43;100.00;101835.25;2105455;28;20048;-66
2022/08/02 02:25:43;;;;;;;13.25;8.85;;;;;;;8.44;100.00;101836.16;2104838;28;32035;-66
2022/08/02 02:26:47;;;;;;;10.35;7.22;;;;;;;8.43;100.00;101840.56;2105925;28;27510;-66
2022/08/02 02:28:08;;;;;;;11.10;6.97;;;;;;;8.45;100.00;101835.25;2105528;28;24538;-66
2022/08/02 02:29:10;;;;;;;13.70;7.68;;;;;;;8.48;100.00;101835.25;2104971;28;29163;-66
2022/08/02 02:30:13;;;;;;;11.82;7.60;;;;;;;8.46;100.00;101831.69;2105407;28;31575;-66
2022/08/02 02:31:18;;;;;;;10.20;7.78;;;;;;;8.45;100.00;101833.44;2104614;28;39158;-65
2022/08/02 02:32:24;;;;;;;14.05;7.40;;;;;;;8.44;100.00;101830.81;2105360;28;23265;-66
2022/08/02 02:33:29;;;;;;;11.48;6.60;;;;;;;8.48;100.00;101820.13;2105132;28;30215;-66
2022/08/02 02:34:36;;;;;;;10.80;7.10;;;;;;;8.53;100.00;101810.34;2096667;28;27374;-66
2022/08/02 02:35:41;;;;;;;12.38;7.90;;;;;;;8.59;100.00;101810.31;2089517;28;33333;-66
2022/08/02 02:36:50;;;;;;;15.63;7.25;;;;;;;8.63;100.00;101808.53;2096757;28;26947;-66
2022/08/02 02:37:55;;;;;;;11.07;7.70;;;;;;;8.64;100.00;101805.00;2097535;28;20114;-66
2022/08/02 02:39:00;;;;;;;16.35;7.70;;;;;;;8.63;100.00;101804.97;2096738;28;27972;-66
2022/08/02 02:40:03;;;;;;;13.65;6.75;;;;;;;8.63;100.00;101804.97;2096688;28;30083;-66
2022/08/02 02:41:07;;;;;;;11.48;6.35;;;;;;;8.57;100.00;101805.88;2096842;28;20036;-66
2022/08/02 02:42:15;;;;;;;8.02;5.60;;;;;;;8.51;100.00;101803.22;2096580;28;27619;-66
2022/08/02 02:43:21;;;;;;;11.95;7.05;;;;;;;8.52;100.00;101802.31;2090658;28;20038;-66
2022/08/02 02:44:24;;;;;;;16.25;7.47;;;;;;;8.54;100.00;101795.19;2089303;28;28762;-66
2022/08/02 02:45:29;;;;;;;12.80;6.53;;;;;;;8.53;100.00;101797.00;2088935;28;20046;-66
2022/08/02 02:46:33;;;;;;;14.82;7.57;;;;;;;8.59;100.00;101798.75;2090068;28;20067;-66
2022/08/02 02:47:36;;;;;;;10.75;6.82;;;;;;;8.57;100.00;101790.75;2088822;28;29178;-66
2022/08/02 02:48:41;;;;;;;14.52;7.68;;;;;;;8.62;100.00;101796.09;2089630;28;32133;-66
2022/08/02 02:49:46;;;;;;;10.60;6.50;;;;;;;8.59;100.00;101794.31;2088293;28;35150;-65
2022/08/02 02:50:49;;;;;;;12.55;6.88;;;;;;;8.60;100.00;101795.22;2089047;28;34044;-66
2022/08/02 02:51:53;;;;;;;10.95;6.22;;;;;;;8.58;100.00;101789.88;2089051;28;25272;-66
2022/08/02 02:52:55;;;;;;;12.00;6.10;;;;;;;8.53;100.00;101788.09;2088842;28;30938;-66
2022/08/02 02:53:58;;;;;;;8.10;5.72;;;;;;;8.48;100.00;101790.75;2096398;28;32993;-67
2022/08/02 02:55:21;;;;;;;7.07;5.53;;;;;;;8.45;100.00;101789.88;2097060;28;20115;-67
2022/08/02 02:56:24;;;;;;;14.48;6.97;;;;;;;8.36;100.00;101791.63;2096839;28;25777;-66
2022/08/02 02:57:26;;;;;;;13.55;6.03;;;;;;;8.33;100.00;101785.41;2097865;28;20978;-66
2022/08/02 02:58:30;;;;;;;13.02;5.95;;;;;;;8.30;100.00;101774.72;2097452;28;20126;-66
2022/08/02 02:59:35;;;;;;;10.32;6.10;;;;;;;8.28;100.00;101777.41;2096332;28;22973;-66
2022/08/02 03:02:05;;;;;;;13.90;7.40;;;;;;;8.34;100.00;101781.84;2092135;28;30382;-66
2022/08/02 03:03:12;;;;;;;15.20;7.82;;;;;;;8.33;100.00;101775.63;2091346;28;27232;-67
2022/08/02 03:04:17;;;;;;;12.05;7.63;;;;;;;8.33;100.00;101774.75;2095174;28;33039;-66
2022/08/02 03:05:19;;;;;;;14.07;7.72;;;;;;;8.29;100.00;101775.59;2097992;28;28416;-66
2022/08/02 03:06:24;;;;;;;10.88;6.95;;;;;;;8.25;100.00;101769.38;2105133;28;31627;-67
2022/08/02 03:07:26;;;;;;;9.57;6.50;;;;;;;8.22;100.00;101772.06;2105528;28;20032;-67
2022/08/02 03:08:28;;;;;;;15.10;7.75;;;;;;;8.20;100.00;101782.75;2104419;28;30406;-66
2022/08/02 03:09:30;;;;;;;11.05;5.93;;;;;;;8.16;100.00;101769.38;2104709;28;29758;-66
2022/08/02 03:10:33;;;;;;;11.40;6.65;;;;;;;8.12;100.00;101776.50;2105209;28;20083;-66
2022/08/02 03:11:37;;;;;;;11.13;6.78;;;;;;;8.07;100.00;101770.25;2104541;28;27266;-66
2022/08/02 03:13:04;;;;;;;13.38;7.35;;;;;;;8.05;100.00;101776.50;2104700;28;25438;-66
2022/08/02 03:14:34;;;;;;;11.70;6.50;;;;;;;8.01;100.00;101772.94;2105667;28;20083;-66
2022/08/02 03:15:40;;;;;;;13.75;8.20;;;;;;;8.01;100.00;101776.50;2105562;28;20041;-66
2022/08/02 03:16:50;;;;;;;18.80;9.35;;;;;;;8.06;100.00;101776.50;2105079;28;20994;-67
2022/08/02 03:17:52;;;;;;;15.15;9.40;;;;;;;8.06;100.00;101780.94;2105185;28;31511;-66
2022/08/02 03:18:56;;;;;;;15.82;8.13;;;;;;;8.03;100.00;101782.72;2103876;28;40102;-66
2022/08/02 03:19:57;;;;;;;12.50;8.02;;;;;;;8.03;100.00;101782.72;2105836;28;23205;-66
2022/08/02 03:21:06;;;;;;;15.93;8.25;;;;;;;8.00;100.00;101779.16;2104190;28;32723;-66
2022/08/02 03:22:10;;;;;;;10.60;7.47;;;;;;;7.96;100.00;101778.25;2105277;28;28201;-66
2022/08/02 03:23:12;;;;;;;8.82;6.65;;;;;;;7.97;100.00;101772.03;2105591;28;20029;-66
2022/08/02 03:24:16;;;;;;;12.85;8.40;;;;;;;7.95;100.00;101771.16;2105315;28;32959;-67
2022/08/02 03:25:18;;;;;;;16.13;8.45;;;;;;;8.00;100.00;101777.41;2105219;28;23254;-66
2022/08/02 03:26:20;;;;;;;15.20;8.90;;;;;;;8.02;100.00;101774.69;2105619;28;24946;-66
2022/08/02 03:27:24;;;;;;;12.65;7.75;;;;;;;8.03;100.00;101777.38;2105143;28;20837;-66
2022/08/02 03:28:29;;;;;;;13.60;8.27;;;;;;;8.06;100.00;101779.19;2106249;28;20045;-66
2022/08/02 03:29:31;;;;;;;12.95;8.77;;;;;;;8.11;100.00;101776.50;2104768;28;29152;-66
2022/08/02 03:30:35;;;;;;;17.42;10.55;;;;;;;8.16;100.00;101774.72;2106059;28;30324;-66
2022/08/02 03:31:42;;;;;;;18.45;9.65;;;;;;;8.19;100.00;101772.06;2105212;28;31013;-66
2022/08/02 03:32:47;;;;;;;25.20;11.70;;;;;;;8.26;100.00;101763.16;2105535;28;27917;-66
2022/08/02 03:33:52;;;;;;;20.67;10.60;;;;;;;8.33;100.00;101770.28;2104544;28;29177;-66
2022/08/02 03:34:53;;;;;;;21.17;10.70;;;;;;;8.36;100.00;101772.97;2104428;28;27223;-66
2022/08/02 03:36:18;;;;;;;17.35;9.48;;;;;;;8.34;100.00;101772.03;2105327;28;20126;-66
2022/08/02 03:37:21;;;;;;;22.08;10.75;;;;;;;8.37;100.00;101773.84;2104718;28;28713;-66
2022/08/02 03:38:26;;;;;;;15.43;9.10;;;;;;;8.37;100.00;101777.38;2104876;28;27114;-66
2022/08/02 03:39:32;;;;;;;16.45;9.30;;;;;;;8.41;100.00;101770.28;2104478;28;28569;-66
2022/08/02 03:40:38;;;;;;;17.98;10.40;;;;;;;8.44;100.00;101772.09;2105404;28;27453;-66
2022/08/02 03:41:42;;;;;;;19.63;10.00;;;;;;;8.48;100.00;101772.09;2104579;28;21041;-66
2022/08/02 03:42:49;;;;;;;15.48;9.23;;;;;;;8.45;100.00;101769.41;2104835;28;30519;-66
2022/08/02 03:43:51;;;;;;;19.25;8.88;;;;;;;8.46;100.00;101765.84;2104684;28;30678;-66
2022/08/02 03:44:55;;;;;;;13.82;9.27;;;;;;;8.45;100.00;101773.88;2104942;28;21851;-66
2022/08/02 03:45:58;;;;;;;15.00;9.57;;;;;;;8.49;100.00;101775.63;2104730;28;27288;-66
2022/08/02 03:47:01;;;;;;;20.10;10.38;;;;;;;8.48;100.00;101780.09;2105433;28;20757;-66
2022/08/02 03:48:04;;;;;;;16.52;9.10;;;;;;;8.51;100.00;101776.53;2104466;28;25681;-66
2022/08/02 03:49:30;;;;;;;16.75;9.43;;;;;;;8.53;100.00;101777.44;2105748;28;20036;-66
2022/08/02 03:50:35;;;;;;;19.13;9.85;;;;;;;8.53;100.00;101778.31;2105469;28;24397;-66
2022/08/02 03:51:37;;;;;;;16.80;9.27;;;;;;;8.54;100.00;101771.19;2104458;28;32866;-69
2022/08/02 03:52:46;;;;;;;16.95;9.38;;;;;;;8.56;100.00;101782.75;2104452;28;25757;-67
2022/08/02 03:53:50;;;;;;;15.30;9.13;;;;;;;8.55;100.00;101781.84;2105383;28;20860;-68
2022/08/02 03:54:53;;;;;;;19.25;9.18;;;;;;;8.58;100.00;101781.88;2105165;28;20075;-68
2022/08/02 03:55:55;;;;;;;16.58;9.50;;;;;;;8.60;100.00;101773.84;2104413;28;27980;-68
2022/08/02 03:56:57;;;;;;;17.75;9.77;;;;;;;8.59;100.00;101772.94;2104999;28;22580;-68
2022/08/02 03:58:00;;;;;;;14.30;8.85;;;;;;;8.62;100.00;101771.19;2105641;28;20905;-68
2022/08/02 03:59:13;;;;;;;16.90;9.90;;;;;;;8.65;100.00;101764.06;2105185;28;31347;-67
2022/08/02 04:00:21;;;;;;;19.73;9.93;;;;;;;8.67;100.00;101770.28;2104436;28;20043;-75
2022/08/02 04:01:23;;;;;;;18.63;10.18;;;;;;;8.67;100.00;101764.03;2104828;28;28939;-68
2022/08/02 04:02:29;;;;;;;18.25;8.93;;;;;;;8.65;100.00;101760.47;2105319;28;20048;-68
2022/08/02 04:03:31;;;;;;;16.48;8.32;;;;;;;8.63;100.00;101763.16;2105405;28;27877;-67
2022/08/02 04:04:33;;;;;;;12.05;7.80;;;;;;;8.64;100.00;101764.06;2105156;28;31215;-68
2022/08/02 04:05:38;;;;;;;18.83;8.40;;;;;;;8.65;100.00;101755.16;2105663;28;20048;-67
2022/08/02 04:06:59;;;;;;;16.52;9.60;;;;;;;8.66;100.00;101752.47;2105922;28;20044;-67
2022/08/02 04:08:01;;;;;;;19.05;9.00;;;;;;;8.69;100.00;101752.47;2105477;28;29906;-67
2022/08/02 04:09:23;;;;;;;14.02;8.65;;;;;;;8.70;100.00;101750.69;2105461;28;20041;-67
2022/08/02 04:10:25;;;;;;;16.17;8.57;;;;;;;8.72;100.00;101743.56;2104240;28;28113;-67
2022/08/02 04:11:29;;;;;;;12.90;8.90;;;;;;;8.73;100.00;101740.00;2104544;28;28178;-67
2022/08/02 04:12:31;;;;;;;15.07;9.68;;;;;;;8.77;100.00;101747.13;2105214;28;30212;-67
2022/08/02 04:13:37;;;;;;;17.40;9.65;;;;;;;8.77;100.00;101750.69;2105470;28;20067;-67
2022/08/02 04:14:40;;;;;;;19.88;9.80;;;;;;;8.81;100.00;101737.31;2103686;28;25509;-67
2022/08/02 04:15:42;;;;;;;20.13;10.13;;;;;;;8.84;100.00;101739.97;2104911;28;35071;-66
2022/08/02 04:16:51;;;;;;;14.13;8.93;;;;;;;8.85;100.00;101736.44;2104739;28;33917;-67
2022/08/02 04:17:58;;;;;;;16.10;8.93;;;;;;;8.89;100.00;101738.19;2104590;28;32546;-68
2022/08/02 04:19:04;;;;;;;16.13;9.52;;;;;;;8.94;100.00;101737.28;2104212;28;34021;-67
2022/08/02 04:20:18;;;;;;;12.25;8.13;;;;;;;8.99;100.00;101734.63;2104929;28;29099;-67
2022/08/02 04:21:25;;;;;;;16.63;8.38;;;;;;;9.08;100.00;101734.56;2104688;28;24389;-68
2022/08/02 04:22:48;;;;;;;15.65;8.57;;;;;;;9.20;100.00;101733.63;2104825;28;29598;-67
2022/08/02 04:23:50;;;;;;;19.80;9.98;;;;;;;9.48;100.00;101726.34;2104824;28;20048;-67
2022/08/02 04:24:58;;;;;;;16.65;9.48;;;;;;;9.88;100.00;101734.09;2104762;28;27837;-67
2022/08/02 04:26:02;;;;;;;15.68;8.45;;;;;;;10.39;100.00;101735.50;2104336;28;24785;-67
2022/08/02 04:27:07;;;;;;;15.50;7.65;;;;;;;10.82;100.00;101733.28;2104715;28;20118;-67
2022/08/02 04:28:20;;;;;;;14.55;6.35;;;;;;;11.38;100.00;101733.50;2104104;28;30423;-67
2022/08/02 04:29:26;;;;;;;10.18;5.70;;;;;;;11.80;95.86;101738.25;2103319;28;37018;-67
2022/08/02 04:30:33;;;;;;;10.27;5.97;;;;;;;12.27;92.51;101733.06;2105153;28;20305;-68
2022/08/02 04:31:41;;;;;;;9.45;5.43;;;;;;;12.82;90.49;101742.78;2103798;28;33414;-68
2022/08/02 04:32:47;;;;;;;10.90;4.38;;;;;;;13.33;89.02;101731.94;2104895;28;25651;-68
2022/08/02 04:33:50;;;;;;;9.65;3.90;;;;;;;13.88;86.86;101737.84;2104935;28;20106;-68
2022/08/02 04:34:54;;;;;;;8.98;3.95;;;;;;;14.33;81.76;101731.34;2105150;28;32402;-68
2022/08/02 04:36:16;;;;;;;11.02;3.33;;;;;;;14.84;77.54;101739.00;2105113;28;20052;-67
2022/08/02 04:37:36;;;;;;;9.75;3.55;;;;;;;15.32;75.33;101736.72;2104815;28;28378;-68
2022/08/02 04:38:38;;;;;;;12.48;3.47;;;;;;;15.55;74.55;101745.00;2105748;28;20107;-68
2022/08/02 04:39:40;;;;;;;6.43;2.85;;;;;;;15.87;74.94;101736.88;2104928;28;25502;-68
2022/08/02 04:40:54;;;;;;;7.43;3.00;;;;;;;16.53;73.57;101740.06;2105166;28;26594;-68
2022/08/02 04:41:56;;;;;;;6.97;2.72;;;;;;;16.53;67.64;101740.94;2105587;28;29189;-68
2022/08/02 04:42:58;;;;;;;6.75;3.00;;;;;;;16.57;69.08;101734.47;2105362;28;27692;-68
2022/08/02 04:44:00;;;;;;;6.05;2.30;;;;;;;16.70;69.41;101745.75;2104931;28;20118;-68
2022/08/02 04:45:03;;;;;;;6.88;2.63;;;;;;;16.80;67.67;101728.25;2105081;28;25468;-68
2022/08/02 04:46:05;;;;;;;6.07;2.40;;;;;;;16.77;66.81;101736.47;2104461;28;27016;-68
2022/08/02 04:47:09;;;;;;;5.28;2.75;;;;;;;16.77;66.76;101739.16;2105133;28;32294;-68
2022/08/02 04:48:11;;;;;;;6.53;2.47;;;;;;;16.94;67.49;101735.00;2104638;28;32125;-68
2022/08/02 04:49:13;;;;;;;6.95;2.80;;;;;;;16.96;67.02;101733.16;2105633;28;20041;-68
2022/08/02 04:50:15;;;;;;;9.73;2.72;;;;;;;16.65;65.00;101736.91;2104390;28;37770;-68
2022/08/02 04:51:16;;;;;;;5.88;2.60;;;;;;;16.57;66.43;101737.19;2104902;28;36900;-68
2022/08/02 04:52:18;;;;;;;5.70;2.70;;;;;;;16.59;65.30;101739.84;2104938;28;25058;-68
2022/08/02 04:53:20;;;;;;;9.05;2.45;;;;;;;16.66;67.39;101743.22;2104376;28;41176;-69
2022/08/02 04:54:24;;;;;;;6.40;2.75;;;;;;;16.43;67.72;101739.47;2104132;28;33096;-69
2022/08/02 04:55:27;;;;;;;4.75;2.28;;;;;;;16.75;68.55;101740.19;2104465;28;28805;-68
2022/08/02 04:56:29;;;;;;;5.95;2.35;;;;;;;17.04;67.56;101746.38;2103769;28;34114;-68
2022/08/02 04:58:56;;;;;;;7.68;2.63;;;;;;;17.67;64.73;101738.53;2104126;28;31305;-69
2022/08/02 04:59:57;;;;;;;5.20;2.17;;;;;;;17.77;62.16;101733.66;2104370;28;27857;-69
2022/08/02 05:00:59;;;;;;;8.35;2.60;;;;;;;17.81;60.58;101728.03;2104640;28;32508;-69
2022/08/02 05:02:01;;;;;;;8.38;2.47;;;;;;;18.07;62.68;101739.66;2105319;28;21775;-69
2022/08/02 05:03:03;;;;;;;6.55;2.55;;;;;;;18.66;60.47;101733.53;2104321;28;29723;-69
2022/08/02 05:04:05;;;;;;;5.88;2.05;;;;;;;18.69;59.30;101727.06;2104942;28;30666;-69
2022/08/02 05:05:07;;;;;;;6.93;2.25;;;;;;;19.12;57.10;101732.41;2105080;28;20890;-69
2022/08/02 05:06:12;;;;;;;7.25;2.40;;;;;;;19.50;56.23;101729.72;2105785;28;20033;-69
2022/08/02 05:07:20;;;;;;;4.53;1.90;;;;;;;19.93;55.51;101735.81;2104517;28;25423;-69
2022/08/02 05:08:24;;;;;;;6.93;2.20;;;;;;;20.24;53.50;101726.13;2105588;28;20072;-69
2022/08/02 05:09:28;;;;;;;4.53;2.00;;;;;;;20.63;53.79;101727.78;2104971;28;21968;-69